Time;durP1;ratioP1;P1;durP2;ratioP2;P2;SDS_P1;SDS_P2;PMS_P1;PMS_P2;Temp;Humidity;BMP_temperature;BMP_pressure;BME280_temperature;BME280_humidity;BME280_pressure;Samples;Min_cycle;Max_cycle;Signal;HPM_P1;HPM_P2
2023/12/11 00:01:45;;;;;;;36.70;32.70;;;;;;;2.23;100.00;97114.45;109563;1290;22123;-74
2023/12/11 00:04:13;;;;;;;37.20;33.30;;;;;;;2.21;100.00;97114.35;109574;1290;22180;-74
2023/12/11 00:06:42;;;;;;;37.10;33.30;;;;;;;2.22;100.00;97112.27;109559;1286;22207;-74
2023/12/11 00:09:10;;;;;;;33.60;30.00;;;;;;;2.23;100.00;97100.84;109590;1290;22731;-75
2023/12/11 00:11:38;;;;;;;34.20;28.80;;;;;;;2.27;100.00;97094.26;109586;1290;23018;-74
2023/12/11 00:14:06;;;;;;;33.10;29.70;;;;;;;2.31;100.00;97084.25;109607;1290;22689;-74
2023/12/11 00:16:34;;;;;;;36.80;33.00;;;;;;;2.35;100.00;97079.54;109593;1286;22236;-74
2023/12/11 00:19:02;;;;;;;34.70;30.70;;;;;;;2.39;100.00;97078.95;109580;1283;22140;-74
2023/12/11 00:21:30;;;;;;;36.80;32.90;;;;;;;2.44;100.00;97074.60;109578;1286;22192;-74
2023/12/11 00:23:58;;;;;;;38.70;34.70;;;;;;;2.47;100.00;97072.09;109584;1283;22323;-74
2023/12/11 00:26:26;;;;;;;38.20;34.10;;;;;;;2.47;100.00;97065.65;109572;1290;22216;-75
2023/12/11 00:28:54;;;;;;;32.90;29.30;;;;;;;2.46;100.00;97067.23;109564;1283;23104;-74
2023/12/11 00:31:22;;;;;;;30.90;27.70;;;;;;;2.47;100.00;97068.63;109598;1290;22927;-74
2023/12/11 00:33:50;;;;;;;31.10;26.40;;;;;;;2.47;100.00;97069.44;109580;1286;23263;-75
2023/12/11 00:36:18;;;;;;;31.50;28.10;;;;;;;2.48;100.00;97057.83;109588;1290;22811;-74
2023/12/11 00:38:47;;;;;;;32.40;29.10;;;;;;;2.50;100.00;97052.25;109566;1282;22833;-74
2023/12/11 00:41:18;;;;;;;30.20;25.90;;;;;;;2.50;100.00;97046.19;109595;1290;22810;-74
2023/12/11 00:43:46;;;;;;;27.90;24.80;;;;;;;2.47;100.00;97042.52;109564;1290;22147;-77
2023/12/11 00:46:16;;;;;;;29.30;26.10;;;;;;;2.44;100.00;97045.03;109579;1283;22382;-74
2023/12/11 00:48:44;;;;;;;29.20;25.30;;;;;;;2.41;100.00;97040.77;109567;1286;22239;-75
2023/12/11 00:51:20;;;;;;;25.70;22.80;;;;;;;2.40;100.00;97046.04;109572;1290;22227;-76
2023/12/11 00:53:48;;;;;;;27.70;24.50;;;;;;;2.41;100.00;97050.50;109613;1286;22229;-74
2023/12/11 00:56:16;;;;;;;26.90;24.00;;;;;;;2.39;100.00;97047.53;109578;1275;23018;-75
2023/12/11 00:58:44;;;;;;;27.20;24.70;;;;;;;2.38;100.00;97044.66;109574;1290;23164;-75
2023/12/11 01:01:13;;;;;;;27.60;24.40;;;;;;;2.32;100.00;97046.02;109591;1286;22424;-74
2023/12/11 01:03:41;;;;;;;26.20;23.50;;;;;;;2.24;100.00;97044.55;109525;1286;22293;-74
2023/12/11 01:06:09;;;;;;;29.70;26.60;;;;;;;2.16;100.00;97044.06;109570;1286;23012;-74
2023/12/11 01:08:40;;;;;;;37.50;34.10;;;;;;;2.11;100.00;97036.67;109600;1286;22170;-73
2023/12/11 01:11:08;;;;;;;28.50;25.50;;;;;;;2.09;100.00;97029.39;109558;1283;22297;-74
2023/12/11 01:13:37;;;;;;;29.40;25.90;;;;;;;2.05;100.00;97023.29;109585;1283;22228;-74
2023/12/11 01:16:06;;;;;;;29.10;23.00;;;;;;;2.03;100.00;97021.11;109577;1283;22243;-73
2023/12/11 01:18:34;;;;;;;25.30;22.60;;;;;;;2.03;100.00;97019.73;109286;1289;193008;-74
2023/12/11 01:21:04;;;;;;;24.90;22.30;;;;;;;1.99;100.00;97016.41;109589;1283;22876;-74
2023/12/11 01:23:32;;;;;;;24.40;21.90;;;;;;;1.90;100.00;97018.54;109591;1286;22298;-76
2023/12/11 01:26:00;;;;;;;25.10;22.50;;;;;;;1.85;100.00;97011.05;109614;1282;22229;-75
2023/12/11 01:28:29;;;;;;;25.50;22.30;;;;;;;1.83;100.00;97010.36;109563;1275;22347;-76
2023/12/11 01:30:57;;;;;;;23.70;20.50;;;;;;;1.83;100.00;97001.16;109576;1290;22245;-76
2023/12/11 01:33:25;;;;;;;21.90;19.40;;;;;;;1.86;100.00;97000.47;109577;1290;22215;-76
2023/12/11 01:35:53;;;;;;;21.40;19.10;;;;;;;1.88;100.00;96998.39;109606;1286;22224;-75
2023/12/11 01:38:21;;;;;;;21.50;19.30;;;;;;;1.89;100.00;97000.00;109615;1290;22905;-75
2023/12/11 01:40:49;;;;;;;22.70;20.30;;;;;;;1.86;100.00;96994.42;109568;1287;22205;-76
2023/12/11 01:43:18;;;;;;;22.80;18.90;;;;;;;1.81;100.00;96992.77;109599;1290;22308;-76
2023/12/11 01:45:59;;;;;;;21.60;19.30;;;;;;;1.78;100.00;96992.23;109547;1286;22713;-76
2023/12/11 01:48:28;;;;;;;23.10;20.60;;;;;;;1.77;100.00;96986.96;109348;1285;23075;-76
2023/12/11 01:50:57;;;;;;;21.80;19.30;;;;;;;1.77;100.00;96980.80;109489;1283;22252;-76
2023/12/11 01:53:27;;;;;;;23.00;20.50;;;;;;;1.76;100.00;96974.85;109403;1283;22113;-76
2023/12/11 01:55:55;;;;;;;25.10;22.60;;;;;;;1.77;100.00;96976.30;109365;1290;22275;-76
2023/12/11 01:58:24;;;;;;;24.80;22.00;;;;;;;1.77;100.00;96971.71;109594;1290;22315;-75
2023/12/11 02:00:52;;;;;;;21.40;19.00;;;;;;;1.77;100.00;96965.19;109462;1283;22121;-74
2023/12/11 02:03:22;;;;;;;22.40;19.90;;;;;;;1.75;100.00;96972.09;109604;1282;22149;-74
2023/12/11 02:05:51;;;;;;;22.10;18.70;;;;;;;1.73;100.00;96967.90;109608;1289;22239;-74
2023/12/11 02:08:19;;;;;;;20.50;18.30;;;;;;;1.71;100.00;96972.83;109571;1280;22217;-76
2023/12/11 02:10:47;;;;;;;23.30;20.70;;;;;;;1.68;100.00;96975.59;109515;1290;22273;-75
2023/12/11 02:13:15;;;;;;;21.50;18.80;;;;;;;1.64;100.00;96976.96;109552;1279;22138;-75
2023/12/11 02:15:45;;;;;;;22.70;20.30;;;;;;;1.52;100.00;96972.70;109579;1283;22254;-76
2023/12/11 02:18:16;;;;;;;21.60;19.30;;;;;;;1.46;100.00;96961.42;109402;1276;22264;-77
2023/12/11 02:20:45;;;;;;;22.20;19.90;;;;;;;1.49;100.00;96959.31;109555;1286;22094;-77
2023/12/11 02:23:19;;;;;;;24.70;19.90;;;;;;;1.54;100.00;96958.46;109582;1282;22203;-78
2023/12/11 02:25:59;;;;;;;23.40;20.50;;;;;;;1.61;100.00;96949.08;109587;1276;22321;-77
2023/12/11 02:28:27;;;;;;;21.60;19.30;;;;;;;1.67;100.00;96937.52;109601;1283;22338;-77
2023/12/11 02:30:55;;;;;;;23.20;19.40;;;;;;;1.70;100.00;96921.09;109575;1277;22205;-77
2023/12/11 02:33:23;;;;;;;20.70;18.30;;;;;;;1.71;100.00;96901.18;109564;1290;22241;-78
2023/12/11 02:35:51;;;;;;;20.50;18.40;;;;;;;1.70;100.00;96891.78;109532;1280;22234;-77
2023/12/11 02:38:19;;;;;;;18.10;15.90;;;;;;;1.68;100.00;96895.49;109584;1278;22361;-78
2023/12/11 02:40:47;;;;;;;18.10;14.70;;;;;;;1.73;100.00;96899.11;109575;1283;22261;-77
2023/12/11 02:43:15;;;;;;;15.70;12.70;;;;;;;1.78;100.00;96900.27;109592;1282;22427;-77
2023/12/11 02:45:43;;;;;;;15.10;13.20;;;;;;;1.84;100.00;96895.02;109604;1283;22859;-77
2023/12/11 02:48:12;;;;;;;20.90;12.80;;;;;;;1.90;100.00;96892.15;109576;1286;22237;-77
2023/12/11 02:50:40;;;;;;;14.60;12.00;;;;;;;1.99;100.00;96888.77;109587;1282;22953;-77
2023/12/11 02:53:08;;;;;;;15.50;12.60;;;;;;;2.05;100.00;96882.98;109605;1276;22235;-77
2023/12/11 02:55:36;;;;;;;17.10;14.70;;;;;;;2.07;100.00;96885.05;109591;1282;22285;-77
2023/12/11 02:58:04;;;;;;;14.90;12.10;;;;;;;2.08;100.00;96890.73;109596;1282;22345;-77
2023/12/11 03:00:33;;;;;;;13.30;10.90;;;;;;;2.09;100.00;96885.95;109603;1286;22844;-77
2023/12/11 03:03:01;;;;;;;13.80;11.20;;;;;;;2.14;100.00;96889.87;109590;1283;22358;-76
2023/12/11 03:05:29;;;;;;;13.10;11.10;;;;;;;2.17;100.00;96887.05;109582;1283;22230;-76
2023/12/11 03:07:57;;;;;;;13.30;10.70;;;;;;;2.19;100.00;96889.80;109584;1290;22353;-77
2023/12/11 03:10:25;;;;;;;14.10;11.70;;;;;;;2.23;100.00;96890.44;109562;1283;22269;-77
2023/12/11 03:12:53;;;;;;;13.80;11.80;;;;;;;2.26;100.00;96894.64;109594;1282;22227;-76
2023/12/11 03:15:21;;;;;;;15.60;13.20;;;;;;;2.28;100.00;96898.08;109598;1290;22099;-76
2023/12/11 03:17:49;;;;;;;15.00;13.40;;;;;;;2.32;100.00;96897.16;109590;1279;23036;-76
2023/12/11 03:20:18;;;;;;;17.40;12.80;;;;;;;2.33;100.00;96893.66;109576;1286;22886;-76
2023/12/11 03:22:45;;;;;;;13.20;10.10;;;;;;;2.35;100.00;96886.37;109582;1286;22235;-76
2023/12/11 03:25:14;;;;;;;14.20;11.80;;;;;;;2.38;100.00;96871.36;109610;1290;22157;-76
2023/12/11 03:27:42;;;;;;;14.20;11.10;;;;;;;2.43;100.00;96858.31;109590;1279;22245;-76
2023/12/11 03:30:10;;;;;;;10.50;9.30;;;;;;;2.47;100.00;96848.95;109569;1290;22260;-77
2023/12/11 03:32:38;;;;;;;17.00;11.60;;;;;;;2.49;100.00;96837.08;109595;1290;22218;-76
2023/12/11 03:35:07;;;;;;;16.40;13.10;;;;;;;2.51;100.00;96838.61;109607;1287;22176;-77
2023/12/11 03:37:34;;;;;;;13.80;11.40;;;;;;;2.51;100.00;96839.58;109597;1279;22461;-76
2023/12/11 03:40:03;;;;;;;13.50;11.40;;;;;;;2.49;100.00;96845.28;109562;1282;22868;-76
2023/12/11 03:42:31;;;;;;;15.50;11.80;;;;;;;2.47;100.00;96845.70;109580;1283;22246;-77
2023/12/11 03:44:59;;;;;;;14.90;11.80;;;;;;;2.46;100.00;96838.89;109587;1279;22232;-76
2023/12/11 03:47:27;;;;;;;13.30;10.80;;;;;;;2.48;100.00;96827.30;109601;1275;22547;-76
2023/12/11 03:49:56;;;;;;;14.80;11.80;;;;;;;2.51;100.00;96813.67;109604;1278;22132;-77
2023/12/11 03:52:24;;;;;;;16.80;13.40;;;;;;;2.55;100.00;96815.58;109587;1282;22925;-77
2023/12/11 03:54:53;;;;;;;16.30;14.00;;;;;;;2.58;100.00;96815.13;109617;1282;22317;-77
2023/12/11 03:57:21;;;;;;;18.20;13.60;;;;;;;2.57;100.00;96811.20;109637;1283;22906;-77
2023/12/11 03:59:49;;;;;;;18.20;14.30;;;;;;;2.56;100.00;96804.34;109560;1283;22342;-76
2023/12/11 04:02:17;;;;;;;15.10;12.30;;;;;;;2.55;100.00;96801.74;109598;1283;22276;-77
2023/12/11 04:04:45;;;;;;;12.40;10.80;;;;;;;2.57;100.00;96805.05;109589;1274;22197;-76
2023/12/11 04:07:13;;;;;;;16.20;12.20;;;;;;;2.60;100.00;96795.87;109590;1279;22151;-76
2023/12/11 04:09:41;;;;;;;15.20;13.60;;;;;;;2.65;100.00;96795.64;109593;1290;22918;-76
2023/12/11 04:12:09;;;;;;;17.00;12.40;;;;;;;2.67;100.00;96797.06;109609;1279;22191;-77
2023/12/11 04:14:37;;;;;;;13.30;10.20;;;;;;;2.70;100.00;96801.71;109667;1282;22143;-76
2023/12/11 04:17:05;;;;;;;12.40;9.80;;;;;;;2.71;100.00;96803.77;109566;1283;22174;-76
2023/12/11 04:19:33;;;;;;;13.00;9.50;;;;;;;2.69;100.00;96799.13;109602;1289;22157;-76
2023/12/11 04:22:02;;;;;;;11.70;9.40;;;;;;;2.68;100.00;96789.77;109606;1290;22902;-76
2023/12/11 04:24:30;;;;;;;11.90;8.90;;;;;;;2.70;100.00;96789.70;109624;1278;22208;-78
2023/12/11 04:26:58;;;;;;;13.80;11.50;;;;;;;2.72;100.00;96788.23;109541;1280;22881;-76
2023/12/11 04:29:26;;;;;;;13.30;9.50;;;;;;;2.78;100.00;96785.77;109505;1283;23028;-77
2023/12/11 04:31:54;;;;;;;14.40;9.60;;;;;;;2.85;100.00;96777.53;109563;1290;22206;-77
2023/12/11 04:34:22;;;;;;;10.70;8.60;;;;;;;2.90;100.00;96769.56;109594;1283;22843;-77
2023/12/11 04:36:50;;;;;;;13.10;9.50;;;;;;;2.94;100.00;96765.43;109589;1283;22223;-77
2023/12/11 04:39:18;;;;;;;13.30;10.40;;;;;;;2.98;100.00;96759.08;109576;1277;23000;-77
2023/12/11 04:41:46;;;;;;;13.60;9.40;;;;;;;3.01;100.00;96750.59;109508;1286;22229;-76
2023/12/11 04:44:14;;;;;;;14.50;10.10;;;;;;;3.06;100.00;96745.08;109577;1286;22248;-76
2023/12/11 04:46:42;;;;;;;14.80;11.70;;;;;;;3.12;100.00;96741.93;109579;1279;22344;-76
2023/12/11 04:49:10;;;;;;;14.70;12.60;;;;;;;3.21;100.00;96739.94;109607;1276;22237;-77
2023/12/11 04:51:38;;;;;;;12.90;10.20;;;;;;;3.25;100.00;96741.41;109534;1283;22253;-77
2023/12/11 04:54:06;;;;;;;13.00;10.30;;;;;;;3.30;100.00;96750.46;109599;1290;22233;-77
2023/12/11 04:56:37;;;;;;;13.20;9.50;;;;;;;3.32;100.00;96760.25;109576;1286;22234;-78
2023/12/11 04:59:05;;;;;;;12.10;10.70;;;;;;;3.33;100.00;96774.46;109606;1283;22213;-77
2023/12/11 05:01:34;;;;;;;13.30;10.40;;;;;;;3.31;100.00;96780.70;109591;1283;22877;-77
2023/12/11 05:04:02;;;;;;;11.10;10.00;;;;;;;3.30;100.00;96791.15;109566;1286;22714;-77
2023/12/11 05:06:31;;;;;;;10.90;9.70;;;;;;;3.33;100.00;96792.19;109604;1276;22253;-76
2023/12/11 05:08:59;;;;;;;12.50;8.50;;;;;;;3.39;100.00;96792.92;109590;1279;23282;-77
2023/12/11 05:11:27;;;;;;;13.50;8.20;;;;;;;3.45;100.00;96791.45;109587;1290;22251;-77
2023/12/11 05:13:55;;;;;;;12.10;7.30;;;;;;;3.48;100.00;96792.55;109595;1283;22137;-76
2023/12/11 05:16:23;;;;;;;10.50;8.10;;;;;;;3.50;100.00;96785.29;109610;1282;22917;-76
2023/12/11 05:18:54;;;;;;;10.50;7.70;;;;;;;3.52;100.00;96783.40;109613;1279;22279;-77
2023/12/11 05:21:22;;;;;;;8.70;6.90;;;;;;;3.51;100.00;96785.10;109614;1283;22800;-77
2023/12/11 05:23:52;;;;;;;11.60;7.30;;;;;;;3.55;100.00;96781.14;109589;1276;22193;-77
2023/12/11 05:26:20;;;;;;;9.80;7.10;;;;;;;3.63;100.00;96781.17;109593;1282;22949;-77
2023/12/11 05:28:48;;;;;;;10.20;6.40;;;;;;;3.70;100.00;96767.61;109585;1276;22321;-78
2023/12/11 05:31:16;;;;;;;11.80;7.40;;;;;;;3.75;100.00;96753.89;109486;1285;22104;-77
2023/12/11 05:33:44;;;;;;;8.70;7.00;;;;;;;3.77;100.00;96747.56;109584;1283;22235;-78
2023/12/11 05:36:13;;;;;;;9.40;7.40;;;;;;;3.80;100.00;96738.76;109606;1290;22403;-77
2023/12/11 05:38:41;;;;;;;9.50;6.90;;;;;;;3.81;100.00;96731.53;109596;1278;22254;-77
2023/12/11 05:41:09;;;;;;;10.80;7.20;;;;;;;3.85;100.00;96727.81;109585;1283;22231;-77
2023/12/11 05:43:37;;;;;;;9.30;7.10;;;;;;;3.89;100.00;96723.19;109416;1282;22229;-77
2023/12/11 05:46:08;;;;;;;9.20;7.00;;;;;;;3.94;99.86;96721.80;109610;1283;22208;-77
2023/12/11 05:48:36;;;;;;;11.00;7.60;;;;;;;4.04;99.98;96721.95;109582;1270;22296;-77
2023/12/11 05:51:05;;;;;;;12.10;7.70;;;;;;;4.08;99.70;96728.52;109603;1283;22404;-76
2023/12/11 05:53:33;;;;;;;8.20;7.20;;;;;;;4.09;98.76;96730.36;109565;1282;22255;-77
2023/12/11 05:56:01;;;;;;;10.50;8.10;;;;;;;4.08;99.04;96736.09;109591;1283;22853;-77
2023/12/11 05:58:29;;;;;;;13.60;9.30;;;;;;;4.06;97.82;96735.95;109559;1289;22250;-77
2023/12/11 06:00:57;;;;;;;13.50;10.70;;;;;;;4.06;95.92;96736.70;109584;1283;22160;-77
2023/12/11 06:03:25;;;;;;;14.40;11.40;;;;;;;4.07;94.68;96737.74;109608;1283;22216;-77
2023/12/11 06:05:57;;;;;;;15.00;11.10;;;;;;;4.09;95.07;96740.18;109579;1283;22233;-76
2023/12/11 06:08:26;;;;;;;14.20;11.00;;;;;;;4.11;94.78;96746.39;109584;1284;22416;-76
2023/12/11 06:10:54;;;;;;;13.70;12.10;;;;;;;4.11;94.48;96743.83;109570;1282;23019;-76
2023/12/11 06:13:22;;;;;;;13.40;11.40;;;;;;;4.07;95.17;96738.97;109344;1274;22895;-76
2023/12/11 06:15:51;;;;;;;15.00;13.40;;;;;;;4.02;95.82;96742.71;109589;1290;22227;-76
2023/12/11 06:18:19;;;;;;;14.60;12.40;;;;;;;3.96;95.95;96749.33;109597;1280;22979;-76
2023/12/11 06:20:47;;;;;;;15.60;13.10;;;;;;;3.93;94.86;96750.80;109587;1283;22159;-77
2023/12/11 06:23:15;;;;;;;13.60;12.20;;;;;;;3.89;95.24;96754.05;109590;1277;22238;-77
2023/12/11 06:25:43;;;;;;;14.10;12.40;;;;;;;3.87;94.80;96752.15;109608;1283;22191;-77
2023/12/11 06:28:11;;;;;;;15.30;13.80;;;;;;;3.86;95.31;96745.66;109593;1279;22198;-76
2023/12/11 06:30:39;;;;;;;15.90;14.20;;;;;;;3.89;95.63;96747.34;109480;1290;22136;-77
2023/12/11 06:33:08;;;;;;;15.00;13.40;;;;;;;3.89;94.73;96746.49;109625;1289;22303;-77
2023/12/11 06:35:36;;;;;;;17.40;15.50;;;;;;;3.85;94.77;96739.92;109627;1282;22943;-76
2023/12/11 06:38:04;;;;;;;19.90;17.80;;;;;;;3.81;95.38;96726.64;109611;1290;22292;-77
2023/12/11 06:40:32;;;;;;;18.90;16.90;;;;;;;3.75;95.58;96729.16;109580;1283;22232;-76
2023/12/11 06:43:00;;;;;;;15.90;14.30;;;;;;;3.71;96.21;96728.14;109586;1283;22216;-76
2023/12/11 06:45:28;;;;;;;16.80;14.40;;;;;;;3.68;95.20;96735.67;109599;1279;22309;-76
2023/12/11 06:48:02;;;;;;;16.60;14.90;;;;;;;3.70;95.11;96738.64;109593;1278;22262;-76
2023/12/11 06:50:30;;;;;;;17.00;15.30;;;;;;;3.71;95.53;96741.03;109607;1282;22853;-76
2023/12/11 06:52:58;;;;;;;118.00;77.10;;;;;;;3.73;95.52;96747.30;109594;1286;22381;-74
2023/12/11 06:55:26;;;;;;;21.90;19.20;;;;;;;3.74;95.60;96748.52;109581;1277;22290;-76
2023/12/11 06:57:54;;;;;;;41.60;37.70;;;;;;;3.74;95.63;96756.02;109604;1290;22412;-77
2023/12/11 07:00:23;;;;;;;22.00;19.80;;;;;;;3.75;94.86;96759.91;109598;1283;22259;-77
2023/12/11 07:02:51;;;;;;;20.70;18.50;;;;;;;3.74;95.02;96764.50;109610;1284;22325;-77
2023/12/11 07:05:21;;;;;;;23.00;20.60;;;;;;;3.74;94.41;96766.03;109585;1290;22231;-76
2023/12/11 07:07:51;;;;;;;32.20;29.00;;;;;;;3.76;95.03;96762.34;109587;1274;22355;-76
2023/12/11 07:10:19;;;;;;;29.50;26.50;;;;;;;3.79;95.06;96763.16;109615;1275;22875;-76
2023/12/11 07:12:49;;;;;;;28.80;26.10;;;;;;;3.82;94.91;96763.92;109529;1280;22246;-76
2023/12/11 07:15:19;;;;;;;29.90;27.00;;;;;;;3.85;95.15;96764.60;109584;1279;22226;-76
2023/12/11 07:17:47;;;;;;;30.30;27.40;;;;;;;3.86;94.68;96764.69;109593;1286;22196;-77
2023/12/11 07:20:15;;;;;;;29.30;26.60;;;;;;;3.85;94.27;96765.48;109587;1283;22192;-76
2023/12/11 07:22:45;;;;;;;26.80;24.10;;;;;;;3.85;94.01;96769.77;109584;1277;22140;-76
2023/12/11 07:25:13;;;;;;;21.30;19.20;;;;;;;3.86;93.92;96768.47;109564;1283;22223;-76
2023/12/11 07:27:42;;;;;;;21.20;18.60;;;;;;;3.89;94.29;96771.20;109600;1290;22247;-75
2023/12/11 07:30:11;;;;;;;21.50;19.00;;;;;;;3.92;94.04;96769.85;109580;1274;22489;-76
2023/12/11 07:32:39;;;;;;;22.70;20.40;;;;;;;3.89;93.84;96775.42;109592;1290;22304;-76
2023/12/11 07:35:11;;;;;;;22.60;20.20;;;;;;;3.85;93.81;96775.63;109589;1282;22233;-77
2023/12/11 07:37:41;;;;;;;22.80;19.40;;;;;;;3.81;94.07;96784.02;109584;1274;22251;-76
2023/12/11 07:40:10;;;;;;;19.30;17.10;;;;;;;3.80;94.50;96782.96;109457;1276;22258;-76
2023/12/11 07:42:38;;;;;;;20.50;18.30;;;;;;;3.82;94.66;96780.41;109620;1283;22239;-76
2023/12/11 07:45:06;;;;;;;21.40;18.70;;;;;;;3.82;94.94;96778.59;109602;1274;22344;-76
2023/12/11 07:47:34;;;;;;;18.30;16.40;;;;;;;3.82;94.93;96780.46;109595;1280;22211;-76
2023/12/11 07:50:03;;;;;;;34.60;31.20;;;;;;;3.84;94.49;96782.07;109598;1283;22137;-76
2023/12/11 07:52:31;;;;;;;38.90;35.00;;;;;;;3.85;94.18;96789.73;109587;1284;22871;-77
2023/12/11 07:55:00;;;;;;;41.40;37.40;;;;;;;3.88;94.33;96789.45;109589;1277;22233;-76
2023/12/11 07:57:28;;;;;;;24.10;21.70;;;;;;;3.93;94.71;96793.88;109611;1290;22229;-76
2023/12/11 07:59:57;;;;;;;24.30;21.90;;;;;;;4.00;95.03;96794.98;109596;1278;22899;-76
2023/12/11 08:02:25;;;;;;;21.60;19.50;;;;;;;4.05;95.02;96793.96;109573;1283;22283;-76
2023/12/11 08:04:53;;;;;;;20.80;18.70;;;;;;;4.07;94.53;96787.65;109586;1283;22839;-76
2023/12/11 08:07:21;;;;;;;24.00;21.60;;;;;;;4.08;94.70;96785.39;109587;1283;22222;-77
2023/12/11 08:09:49;;;;;;;25.30;22.80;;;;;;;4.11;94.77;96782.95;109599;1290;22241;-77
2023/12/11 08:12:17;;;;;;;52.50;47.30;;;;;;;4.17;95.46;96787.11;109590;1290;22294;-76
2023/12/11 08:14:45;;;;;;;21.30;19.00;;;;;;;4.22;95.29;96787.97;109578;1283;22988;-77
2023/12/11 08:17:13;;;;;;;24.40;21.90;;;;;;;4.26;95.49;96787.59;109531;1277;22944;-77
2023/12/11 08:19:41;;;;;;;42.70;38.50;;;;;;;4.27;95.15;96784.05;109587;1283;22410;-77
2023/12/11 08:22:10;;;;;;;20.90;18.80;;;;;;;4.28;95.21;96783.15;109601;1290;22691;-75
2023/12/11 08:24:38;;;;;;;19.00;17.10;;;;;;;4.29;95.36;96777.63;109602;1280;22190;-75
2023/12/11 08:27:07;;;;;;;22.00;20.10;;;;;;;4.33;95.70;96780.73;109574;1278;22197;-75
2023/12/11 08:29:36;;;;;;;16.60;15.10;;;;;;;4.37;96.04;96783.57;109578;1286;22255;-76
2023/12/11 08:32:04;;;;;;;25.30;23.00;;;;;;;4.39;95.72;96780.61;109585;1280;22958;-75
2023/12/11 08:34:36;;;;;;;25.80;23.40;;;;;;;4.40;95.47;96781.13;109556;1283;22922;-75
2023/12/11 08:37:05;;;;;;;27.40;24.80;;;;;;;4.39;95.82;96777.36;109579;1277;22252;-75
2023/12/11 08:39:33;;;;;;;22.50;20.30;;;;;;;4.43;96.00;96777.52;109576;1283;22223;-75
2023/12/11 08:42:01;;;;;;;19.50;17.60;;;;;;;4.49;96.50;96773.06;109551;1278;22955;-76
2023/12/11 08:44:29;;;;;;;21.60;19.50;;;;;;;4.50;96.17;96769.85;109576;1283;23102;-76
2023/12/11 08:46:57;;;;;;;20.60;18.50;;;;;;;4.52;95.94;96769.83;109546;1283;22223;-75
2023/12/11 08:49:25;;;;;;;20.40;18.30;;;;;;;4.53;95.80;96772.01;109560;1286;22962;-75
2023/12/11 08:51:53;;;;;;;20.00;17.80;;;;;;;4.55;96.23;96771.08;109565;1290;22725;-76
2023/12/11 08:54:21;;;;;;;24.70;22.30;;;;;;;4.59;96.42;96773.33;109576;1277;22254;-75
2023/12/11 08:56:49;;;;;;;26.50;23.80;;;;;;;4.61;96.40;96773.23;109571;1286;22216;-76
2023/12/11 08:59:17;;;;;;;34.50;31.00;;;;;;;4.61;96.43;96775.09;109582;1277;22273;-76
2023/12/11 09:01:46;;;;;;;50.90;45.80;;;;;;;4.65;96.03;96772.33;109562;1283;22976;-76
2023/12/11 09:04:14;;;;;;;38.00;34.30;;;;;;;4.66;96.55;96767.63;109558;1277;22220;-76
2023/12/11 09:06:42;;;;;;;52.40;47.70;;;;;;;4.72;96.60;96772.65;109572;1270;22308;-76
2023/12/11 09:09:10;;;;;;;64.90;58.20;;;;;;;4.77;96.91;96769.60;109570;1283;22396;-76
2023/12/11 09:11:38;;;;;;;102.50;87.00;;;;;;;4.84;96.47;96772.21;109573;1283;23065;-76
2023/12/11 09:14:07;;;;;;;56.80;51.20;;;;;;;4.89;96.25;96762.05;109585;1283;23093;-77
2023/12/11 09:16:35;;;;;;;36.30;33.20;;;;;;;4.95;96.24;96758.77;109566;1286;22270;-77
2023/12/11 09:19:03;;;;;;;33.60;30.60;;;;;;;5.01;96.40;96761.35;109581;1277;22260;-77
2023/12/11 09:21:31;;;;;;;41.30;37.10;;;;;;;5.08;96.42;96761.30;109554;1286;22846;-77
2023/12/11 09:23:59;;;;;;;47.70;43.50;;;;;;;5.12;95.62;96762.15;109574;1283;22849;-77
2023/12/11 09:26:27;;;;;;;33.20;30.30;;;;;;;5.13;95.56;96758.38;109493;1286;22274;-77
2023/12/11 09:28:55;;;;;;;18.60;16.90;;;;;;;5.18;95.78;96755.35;109576;1280;22474;-77
2023/12/11 09:31:24;;;;;;;37.60;34.40;;;;;;;5.25;95.78;96750.17;109575;1283;22897;-76
2023/12/11 09:33:52;;;;;;;17.20;15.60;;;;;;;5.34;95.79;96749.98;109419;1290;22171;-76
2023/12/11 09:36:20;;;;;;;15.90;14.30;;;;;;;5.48;95.39;96750.93;109578;1278;22819;-76
2023/12/11 09:38:49;;;;;;;10.30;9.10;;;;;;;5.53;94.91;96750.89;109557;1284;22345;-76
2023/12/11 09:41:17;;;;;;;11.20;9.40;;;;;;;5.57;94.96;96749.17;109559;1282;22225;-76
2023/12/11 09:43:47;;;;;;;11.40;9.30;;;;;;;5.60;94.91;96750.65;109571;1290;22735;-76
2023/12/11 09:46:17;;;;;;;10.60;8.70;;;;;;;5.62;94.62;96748.55;109538;1283;22269;-75
2023/12/11 09:48:47;;;;;;;11.80;9.70;;;;;;;5.61;94.28;96750.05;109571;1274;23284;-76
2023/12/11 09:51:17;;;;;;;13.20;11.80;;;;;;;5.62;93.93;96741.43;109586;1282;22240;-76
2023/12/11 09:53:48;;;;;;;12.50;11.20;;;;;;;5.64;94.30;96741.02;109568;1274;22782;-76
2023/12/11 09:56:16;;;;;;;15.20;13.60;;;;;;;5.73;93.99;96732.78;109563;1275;22169;-77
2023/12/11 09:58:45;;;;;;;18.40;15.80;;;;;;;5.80;93.96;96732.70;109583;1283;22224;-77
2023/12/11 10:01:14;;;;;;;17.10;15.40;;;;;;;5.83;93.72;96733.57;109579;1290;22280;-77
2023/12/11 10:03:42;;;;;;;17.90;16.00;;;;;;;5.81;92.77;96731.42;109568;1277;22228;-74
2023/12/11 10:06:11;;;;;;;19.60;16.90;;;;;;;5.75;92.71;96735.05;109572;1277;22368;-76
2023/12/11 10:08:43;;;;;;;19.60;16.40;;;;;;;5.73;93.22;96734.29;109602;1290;22127;-76
2023/12/11 10:11:14;;;;;;;14.30;12.90;;;;;;;5.76;93.36;96725.14;109566;1277;22262;-76
2023/12/11 10:13:42;;;;;;;13.40;12.00;;;;;;;5.75;93.39;96723.65;109579;1290;22249;-76
2023/12/11 10:16:33;;;;;;;12.80;11.50;;;;;;;5.77;92.96;96725.66;109563;1277;22879;-75
2023/12/11 10:19:01;;;;;;;11.30;10.10;;;;;;;5.77;92.24;96724.27;109582;1274;23032;-75
2023/12/11 10:21:39;;;;;;;11.30;9.20;;;;;;;5.77;92.35;96718.49;109469;1289;22228;-75
2023/12/11 10:24:13;;;;;;;11.70;10.30;;;;;;;5.80;92.99;96718.05;109257;1283;22305;-75
2023/12/11 10:26:45;;;;;;;12.30;11.00;;;;;;;5.86;92.79;96713.94;109562;1283;22239;-75
2023/12/11 10:29:17;;;;;;;13.50;12.10;;;;;;;5.88;92.35;96708.09;109586;1281;22350;-76
2023/12/11 10:31:45;;;;;;;16.10;14.50;;;;;;;5.88;92.22;96702.36;109581;1283;22304;-76
2023/12/11 10:34:14;;;;;;;17.10;15.30;;;;;;;5.86;91.34;96696.77;109533;1286;22143;-76
2023/12/11 10:36:49;;;;;;;14.90;13.20;;;;;;;5.84;91.86;96698.27;109567;1283;22314;-76
2023/12/11 10:39:21;;;;;;;15.00;13.40;;;;;;;5.80;92.63;96692.84;109542;1286;22991;-76
2023/12/11 10:41:52;;;;;;;16.50;14.90;;;;;;;5.77;92.55;96692.13;109479;1280;22207;-76
2023/12/11 10:44:25;;;;;;;23.20;21.00;;;;;;;5.70;92.33;96687.90;109550;1283;22264;-76
2023/12/11 10:47:14;;;;;;;18.30;16.40;;;;;;;5.72;92.03;96692.84;109535;1284;22126;-75
2023/12/11 10:49:42;;;;;;;23.20;20.80;;;;;;;5.71;92.34;96692.41;109560;1290;22206;-75
2023/12/11 10:52:10;;;;;;;27.20;24.40;;;;;;;5.75;92.55;96695.77;109544;1284;22346;-75
2023/12/11 10:54:41;;;;;;;30.00;26.20;;;;;;;5.74;92.36;96695.85;109548;1279;22367;-76
2023/12/11 10:57:14;;;;;;;54.20;48.60;;;;;;;5.73;92.50;96697.13;109536;1279;22317;-75
2023/12/11 10:59:44;;;;;;;24.50;22.10;;;;;;;5.77;92.16;96699.91;109551;1286;22219;-75
2023/12/11 11:02:17;;;;;;;29.70;27.10;;;;;;;5.79;92.31;96697.86;109570;1276;23108;-75
2023/12/11 11:04:47;;;;;;;32.30;29.50;;;;;;;5.86;92.53;96694.69;109587;1284;22279;-75
2023/12/11 11:07:29;;;;;;;24.20;22.00;;;;;;;5.86;92.50;96689.35;109572;1290;22259;-76
2023/12/11 11:10:20;;;;;;;25.00;22.70;;;;;;;5.85;92.34;96689.21;109597;1283;22885;-76
2023/12/11 11:12:51;;;;;;;16.40;14.70;;;;;;;5.93;92.01;96691.27;109539;1290;22230;-76
2023/12/11 11:15:23;;;;;;;13.00;11.60;;;;;;;6.26;92.05;96690.61;109527;1290;23078;-75
2023/12/11 11:18:03;;;;;;;16.40;14.70;;;;;;;7.01;90.44;96686.39;109561;1283;22401;-76
2023/12/11 11:20:32;;;;;;;21.90;17.30;;;;;;;7.42;89.81;96690.89;109549;1290;22886;-75
2023/12/11 11:23:15;;;;;;;16.30;13.90;;;;;;;7.84;88.76;96690.30;109592;1276;22220;-76